Friday, October 19, 2018, 11:32 AM EDT
Back to Local

KGNR, Greenville

Location: Greenville, ME, United States Lat: 45.467
Local Time: 11:32 AM EDT (15:32 GMT) Lon: -69.583
Time Zone: US/Eastern Elev: 1400 ft

Show me the last for .
Show Decoded

2018-10-19 10:56 METAR KGNR 191456Z AUTO 14006KT 01/M04 A2998 RMK AO1 SLP170 T00061044 58015 =
2018-10-19 09:56 METAR KGNR 191356Z AUTO 15003KT M01/M06 A3000 RMK AO1 SLP180 T10111056 =
2018-10-19 08:56 METAR KGNR 191256Z AUTO 13004KT M02/M06 A3002 RMK AO1 SLP185 T10171056 =
2018-10-19 07:56 METAR KGNR 191156Z AUTO 15004KT M02/M06 A3002 RMK AO1 SLP186 T10171056 11017
                 21022 55003 =
2018-10-19 06:56 METAR KGNR 191056Z AUTO 00000KT M02/M06 A3002 RMK AO1 SLP186 T10171056 =
2018-10-19 05:56 METAR KGNR 190956Z AUTO 00000KT M02/M06 A3003 RMK AO1 SLP189 T10171061 =
2018-10-19 04:56 METAR KGNR 190856Z AUTO 00000KT M02/M07 A3003 RMK AO1 SLP189 T10171067 58003 =
2018-10-19 03:56 METAR KGNR 190756Z AUTO 00000KT M02/M07 A3005 RMK AO1 SLP193 T10171067 =
2018-10-19 02:56 METAR KGNR 190656Z AUTO 32007KT M02/M07 A3004 RMK AO1 SLP192 T10171072 =
2018-10-19 01:56 METAR KGNR 190556Z AUTO 31012G17KT M02/M08 A3004 RMK AO1 SLP192 T10171083 11011
                 21022 58002 =
2018-10-19 00:56 METAR KGNR 190456Z AUTO VRB05KT M02/M08 A3005 RMK AO1 SLP195 T10221078 400171022
                 =
2018-10-18 23:56 METAR KGNR 190356Z AUTO 31007G14KT M02/M08 A3006 RMK AO1 SLP197 T10171083 =
2018-10-18 22:56 METAR KGNR 190256Z AUTO VRB04G15KT M02/M08 A3005 RMK AO1 SLP196 T10171083 50007
                 =
2018-10-18 21:56 METAR KGNR 190156Z AUTO 30006G17KT M02/M09 A3006 RMK AO1 SLP198 T10171094 =
2018-10-18 20:56 METAR KGNR 190056Z AUTO 30008G20KT 270V330 M01/M09 A3005 RMK AO1 SLP196
                 T10111094 =
2018-10-18 19:56 METAR KGNR 182356Z AUTO 30015G24KT 260V320 M01/M09 A3003 RMK AO1 PK WND
                 31027/2322 SLP189 T10111094 10017 21011 51021 =
2018-10-18 18:56 METAR KGNR 182256Z AUTO 30014G29KT M01/M10 A3002 RMK AO1 PK WND 33032/2157
                 SLP186 T10111100 =
2018-10-18 17:56 METAR KGNR 182156Z AUTO 31020G34KT 300V360 M01/M11 A2999 RMK AO1 PK WND
                 32035/2101 SLP175 T10111106 =
2018-10-18 16:56 METAR KGNR 182056Z AUTO 30017G33KT 00/M10 A2997 RMK AO1 PK WND 30033/2053 SLP166
                 T00001100 53007 =
2018-10-18 15:56 METAR KGNR 181956Z AUTO 30020G37KT 00/M09 A2995 RMK AO1 PK WND 31037/1955 SLP162
                 T00001094 $ =
2018-10-18 14:56 METAR KGNR 181856Z AUTO 31017G26KT 00/M08 A2995 RMK AO1 PK WND 29032/1806 SLP160
                 T00001083 =
2018-10-18 13:56 METAR KGNR 181756Z AUTO 29012G28KT 250V320 02/M09 A2994 RMK AO1 PK WND
                 31034/1711 SLP156 T00171094 10017 21022 50006 =
2018-10-18 12:56 METAR KGNR 181656Z AUTO 31019G31KT 01/M09 A2995 RMK AO1 PK WND 31033/1616 SLP158
                 T00061089 =
2018-10-18 11:56 METAR KGNR 181556Z AUTO 30014G27KT 00/M09 A2993 RMK AO1 PK WND 30033/1505 SLP154
                 T00001089 =

Support USWX by starting your Amazon purchase here.